sensor_id;sensor_type;location;lat;lon;timestamp;P1;durP1;ratioP1;P2;durP2;ratioP2
30062;SDS011;16889;67.864;24.990;2023-07-20T00:01:45;8.18;;;4.20;;
30062;SDS011;16889;67.864;24.990;2023-07-20T00:06:32;5.68;;;3.92;;
30062;SDS011;16889;67.864;24.990;2023-07-20T00:11:18;5.88;;;4.03;;
30062;SDS011;16889;67.864;24.990;2023-07-20T00:16:04;5.68;;;3.90;;
30062;SDS011;16889;67.864;24.990;2023-07-20T00:20:50;6.43;;;3.63;;
30062;SDS011;16889;67.864;24.990;2023-07-20T00:25:36;8.20;;;3.90;;
30062;SDS011;16889;67.864;24.990;2023-07-20T00:30:22;7.80;;;3.88;;
30062;SDS011;16889;67.864;24.990;2023-07-20T00:35:08;3.95;;;3.00;;
30062;SDS011;16889;67.864;24.990;2023-07-20T00:39:56;5.30;;;3.20;;
30062;SDS011;16889;67.864;24.990;2023-07-20T00:44:42;4.57;;;2.97;;
30062;SDS011;16889;67.864;24.990;2023-07-20T00:49:28;3.85;;;2.50;;
30062;SDS011;16889;67.864;24.990;2023-07-20T00:54:14;4.88;;;2.47;;
30062;SDS011;16889;67.864;24.990;2023-07-20T00:59:01;2.83;;;2.20;;
30062;SDS011;16889;67.864;24.990;2023-07-20T01:03:47;5.30;;;2.25;;
30062;SDS011;16889;67.864;24.990;2023-07-20T01:08:36;2.28;;;1.45;;
30062;SDS011;16889;67.864;24.990;2023-07-20T01:13:39;2.35;;;1.73;;
30062;SDS011;16889;67.864;24.990;2023-07-20T01:18:26;2.08;;;1.42;;
30062;SDS011;16889;67.864;24.990;2023-07-20T01:33:48;2.60;;;1.63;;
30062;SDS011;16889;67.864;24.990;2023-07-20T01:38:37;2.05;;;1.50;;
30062;SDS011;16889;67.864;24.990;2023-07-20T01:43:23;1.95;;;1.38;;
30062;SDS011;16889;67.864;24.990;2023-07-20T01:48:09;2.13;;;1.50;;
30062;SDS011;16889;67.864;24.990;2023-07-20T01:52:55;2.33;;;1.67;;
30062;SDS011;16889;67.864;24.990;2023-07-20T01:57:41;1.98;;;1.55;;
30062;SDS011;16889;67.864;24.990;2023-07-20T02:02:27;1.73;;;1.40;;
30062;SDS011;16889;67.864;24.990;2023-07-20T02:07:13;2.38;;;1.60;;
30062;SDS011;16889;67.864;24.990;2023-07-20T02:11:59;1.55;;;1.45;;
30062;SDS011;16889;67.864;24.990;2023-07-20T02:16:45;2.45;;;1.58;;
30062;SDS011;16889;67.864;24.990;2023-07-20T02:21:31;2.72;;;1.38;;
30062;SDS011;16889;67.864;24.990;2023-07-20T02:26:17;1.83;;;1.25;;
30062;SDS011;16889;67.864;24.990;2023-07-20T02:31:03;2.25;;;1.40;;
30062;SDS011;16889;67.864;24.990;2023-07-20T02:35:49;3.15;;;1.30;;
30062;SDS011;16889;67.864;24.990;2023-07-20T02:40:35;2.78;;;1.33;;
30062;SDS011;16889;67.864;24.990;2023-07-20T02:45:21;1.90;;;1.33;;
30062;SDS011;16889;67.864;24.990;2023-07-20T02:50:07;2.47;;;1.33;;
30062;SDS011;16889;67.864;24.990;2023-07-20T02:54:53;1.38;;;1.27;;
30062;SDS011;16889;67.864;24.990;2023-07-20T02:59:39;2.13;;;1.30;;
30062;SDS011;16889;67.864;24.990;2023-07-20T03:04:25;2.25;;;1.60;;
30062;SDS011;16889;67.864;24.990;2023-07-20T03:09:12;2.25;;;1.50;;
30062;SDS011;16889;67.864;24.990;2023-07-20T03:13:58;5.80;;;1.85;;
30062;SDS011;16889;67.864;24.990;2023-07-20T03:18:44;2.38;;;1.60;;
30062;SDS011;16889;67.864;24.990;2023-07-20T03:23:30;1.85;;;1.55;;
30062;SDS011;16889;67.864;24.990;2023-07-20T03:28:17;1.92;;;1.60;;
30062;SDS011;16889;67.864;24.990;2023-07-20T03:33:03;1.55;;;1.40;;
30062;SDS011;16889;67.864;24.990;2023-07-20T03:37:49;4.15;;;1.50;;
30062;SDS011;16889;67.864;24.990;2023-07-20T03:42:35;3.92;;;1.50;;
30062;SDS011;16889;67.864;24.990;2023-07-20T03:47:21;3.33;;;1.58;;
30062;SDS011;16889;67.864;24.990;2023-07-20T03:52:07;2.40;;;1.60;;
30062;SDS011;16889;67.864;24.990;2023-07-20T03:56:53;1.92;;;1.63;;
30062;SDS011;16889;67.864;24.990;2023-07-20T04:01:39;3.03;;;1.77;;
30062;SDS011;16889;67.864;24.990;2023-07-20T04:06:25;2.42;;;1.50;;
30062;SDS011;16889;67.864;24.990;2023-07-20T04:11:11;3.42;;;1.50;;
30062;SDS011;16889;67.864;24.990;2023-07-20T04:15:57;2.03;;;1.58;;
30062;SDS011;16889;67.864;24.990;2023-07-20T04:20:43;2.95;;;1.50;;
30062;SDS011;16889;67.864;24.990;2023-07-20T04:25:29;2.85;;;1.48;;
30062;SDS011;16889;67.864;24.990;2023-07-20T04:30:24;1.42;;;1.30;;
30062;SDS011;16889;67.864;24.990;2023-07-20T04:35:10;1.83;;;1.15;;
30062;SDS011;16889;67.864;24.990;2023-07-20T04:39:56;2.42;;;1.30;;
30062;SDS011;16889;67.864;24.990;2023-07-20T04:44:42;1.20;;;1.10;;
30062;SDS011;16889;67.864;24.990;2023-07-20T04:49:28;2.47;;;1.20;;
30062;SDS011;16889;67.864;24.990;2023-07-20T04:54:14;2.08;;;1.25;;
30062;SDS011;16889;67.864;24.990;2023-07-20T04:59:02;5.53;;;1.37;;
30062;SDS011;16889;67.864;24.990;2023-07-20T05:03:48;2.65;;;1.75;;
30062;SDS011;16889;67.864;24.990;2023-07-20T05:08:34;2.03;;;1.40;;
30062;SDS011;16889;67.864;24.990;2023-07-20T05:13:20;4.00;;;1.33;;
30062;SDS011;16889;67.864;24.990;2023-07-20T05:18:06;2.30;;;1.48;;
30062;SDS011;16889;67.864;24.990;2023-07-20T05:22:53;3.33;;;1.45;;
30062;SDS011;16889;67.864;24.990;2023-07-20T05:27:39;1.40;;;1.30;;
30062;SDS011;16889;67.864;24.990;2023-07-20T05:32:25;1.80;;;1.27;;
30062;SDS011;16889;67.864;24.990;2023-07-20T05:37:11;2.80;;;1.30;;
30062;SDS011;16889;67.864;24.990;2023-07-20T05:41:57;1.60;;;1.08;;
30062;SDS011;16889;67.864;24.990;2023-07-20T05:46:43;1.65;;;1.20;;
30062;SDS011;16889;67.864;24.990;2023-07-20T05:51:29;2.17;;;1.08;;
30062;SDS011;16889;67.864;24.990;2023-07-20T05:56:15;1.58;;;1.00;;
30062;SDS011;16889;67.864;24.990;2023-07-20T06:01:03;0.75;;;0.65;;
30062;SDS011;16889;67.864;24.990;2023-07-20T06:05:51;1.38;;;0.70;;
30062;SDS011;16889;67.864;24.990;2023-07-20T06:10:37;1.02;;;0.60;;
30062;SDS011;16889;67.864;24.990;2023-07-20T06:15:24;0.95;;;0.57;;
30062;SDS011;16889;67.864;24.990;2023-07-20T06:20:11;0.60;;;0.60;;
30062;SDS011;16889;67.864;24.990;2023-07-20T06:24:57;1.52;;;0.63;;
30062;SDS011;16889;67.864;24.990;2023-07-20T06:29:43;0.40;;;0.40;;
30062;SDS011;16889;67.864;24.990;2023-07-20T06:34:29;2.85;;;0.30;;
30062;SDS011;16889;67.864;24.990;2023-07-20T06:39:15;0.30;;;0.30;;
30062;SDS011;16889;67.864;24.990;2023-07-20T06:44:01;0.40;;;0.40;;
30062;SDS011;16889;67.864;24.990;2023-07-20T06:48:48;0.40;;;0.40;;
30062;SDS011;16889;67.864;24.990;2023-07-20T06:53:34;0.35;;;0.30;;
30062;SDS011;16889;67.864;24.990;2023-07-20T06:58:20;0.30;;;0.30;;
30062;SDS011;16889;67.864;24.990;2023-07-20T07:03:07;0.35;;;0.35;;
30062;SDS011;16889;67.864;24.990;2023-07-20T07:07:53;1.20;;;0.70;;
30062;SDS011;16889;67.864;24.990;2023-07-20T07:12:39;0.45;;;0.45;;
30062;SDS011;16889;67.864;24.990;2023-07-20T07:17:26;0.60;;;0.40;;
30062;SDS011;16889;67.864;24.990;2023-07-20T07:22:12;0.40;;;0.40;;
30062;SDS011;16889;67.864;24.990;2023-07-20T07:26:59;0.73;;;0.43;;
30062;SDS011;16889;67.864;24.990;2023-07-20T07:31:46;2.15;;;0.40;;
30062;SDS011;16889;67.864;24.990;2023-07-20T07:36:33;1.05;;;0.30;;
30062;SDS011;16889;67.864;24.990;2023-07-20T07:41:20;0.40;;;0.40;;
30062;SDS011;16889;67.864;24.990;2023-07-20T07:46:06;0.30;;;0.30;;
30062;SDS011;16889;67.864;24.990;2023-07-20T07:50:53;0.98;;;0.40;;
30062;SDS011;16889;67.864;24.990;2023-07-20T07:55:39;0.40;;;0.40;;
30062;SDS011;16889;67.864;24.990;2023-07-20T08:00:26;0.20;;;0.20;;
30062;SDS011;16889;67.864;24.990;2023-07-20T08:05:12;3.30;;;0.40;;
30062;SDS011;16889;67.864;24.990;2023-07-20T08:09:58;0.38;;;0.30;;
30062;SDS011;16889;67.864;24.990;2023-07-20T08:14:45;0.37;;;0.37;;
30062;SDS011;16889;67.864;24.990;2023-07-20T08:19:32;0.30;;;0.30;;
30062;SDS011;16889;67.864;24.990;2023-07-20T08:24:18;0.52;;;0.40;;
30062;SDS011;16889;67.864;24.990;2023-07-20T08:29:04;0.30;;;0.30;;
30062;SDS011;16889;67.864;24.990;2023-07-20T08:33:49;0.30;;;0.30;;
30062;SDS011;16889;67.864;24.990;2023-07-20T08:38:35;0.30;;;0.30;;
30062;SDS011;16889;67.864;24.990;2023-07-20T08:43:22;1.95;;;0.40;;
30062;SDS011;16889;67.864;24.990;2023-07-20T08:48:11;0.40;;;0.40;;
30062;SDS011;16889;67.864;24.990;2023-07-20T08:52:58;0.30;;;0.30;;
30062;SDS011;16889;67.864;24.990;2023-07-20T08:57:45;0.40;;;0.40;;
30062;SDS011;16889;67.864;24.990;2023-07-20T09:02:35;0.63;;;0.30;;
30062;SDS011;16889;67.864;24.990;2023-07-20T09:07:27;0.63;;;0.30;;
30062;SDS011;16889;67.864;24.990;2023-07-20T09:12:16;0.45;;;0.30;;
30062;SDS011;16889;67.864;24.990;2023-07-20T09:17:02;0.98;;;0.20;;
30062;SDS011;16889;67.864;24.990;2023-07-20T09:21:49;0.20;;;0.20;;
30062;SDS011;16889;67.864;24.990;2023-07-20T09:26:45;0.63;;;0.22;;
30062;SDS011;16889;67.864;24.990;2023-07-20T09:31:39;0.20;;;0.20;;
30062;SDS011;16889;67.864;24.990;2023-07-20T09:36:26;0.25;;;0.25;;
30062;SDS011;16889;67.864;24.990;2023-07-20T09:41:13;1.17;;;0.40;;
30062;SDS011;16889;67.864;24.990;2023-07-20T09:46:00;1.73;;;0.30;;
30062;SDS011;16889;67.864;24.990;2023-07-20T09:50:50;0.30;;;0.30;;
30062;SDS011;16889;67.864;24.990;2023-07-20T09:55:36;0.95;;;0.40;;
30062;SDS011;16889;67.864;24.990;2023-07-20T10:00:23;0.47;;;0.30;;
30062;SDS011;16889;67.864;24.990;2023-07-20T10:05:10;0.22;;;0.22;;
30062;SDS011;16889;67.864;24.990;2023-07-20T10:09:59;1.73;;;0.40;;
30062;SDS011;16889;67.864;24.990;2023-07-20T10:14:59;0.30;;;0.30;;
30062;SDS011;16889;67.864;24.990;2023-07-20T10:19:59;0.63;;;0.30;;
30062;SDS011;16889;67.864;24.990;2023-07-20T10:24:48;1.35;;;0.43;;
30062;SDS011;16889;67.864;24.990;2023-07-20T10:29:35;0.30;;;0.30;;
30062;SDS011;16889;67.864;24.990;2023-07-20T10:34:23;5.90;;;0.40;;
30062;SDS011;16889;67.864;24.990;2023-07-20T10:39:13;0.88;;;0.30;;
30062;SDS011;16889;67.864;24.990;2023-07-20T10:44:09;0.40;;;0.30;;
30062;SDS011;16889;67.864;24.990;2023-07-20T10:49:00;0.40;;;0.40;;
30062;SDS011;16889;67.864;24.990;2023-07-20T10:53:50;0.30;;;0.22;;
30062;SDS011;16889;67.864;24.990;2023-07-20T10:58:39;0.77;;;0.30;;
30062;SDS011;16889;67.864;24.990;2023-07-20T11:03:27;0.70;;;0.40;;
30062;SDS011;16889;67.864;24.990;2023-07-20T11:08:37;0.30;;;0.30;;
30062;SDS011;16889;67.864;24.990;2023-07-20T11:13:27;0.63;;;0.40;;
30062;SDS011;16889;67.864;24.990;2023-07-20T11:18:16;0.93;;;0.40;;
30062;SDS011;16889;67.864;24.990;2023-07-20T11:23:02;1.38;;;0.30;;
30062;SDS011;16889;67.864;24.990;2023-07-20T11:27:49;0.25;;;0.25;;
30062;SDS011;16889;67.864;24.990;2023-07-20T11:32:35;0.30;;;0.30;;
30062;SDS011;16889;67.864;24.990;2023-07-20T11:37:21;0.50;;;0.38;;
30062;SDS011;16889;67.864;24.990;2023-07-20T11:42:07;0.40;;;0.40;;
30062;SDS011;16889;67.864;24.990;2023-07-20T11:52:15;0.73;;;0.47;;
30062;SDS011;16889;67.864;24.990;2023-07-20T11:57:02;1.38;;;0.43;;
30062;SDS011;16889;67.864;24.990;2023-07-20T12:01:48;1.35;;;0.60;;
30062;SDS011;16889;67.864;24.990;2023-07-20T12:06:34;0.65;;;0.50;;
30062;SDS011;16889;67.864;24.990;2023-07-20T12:11:38;0.73;;;0.30;;
30062;SDS011;16889;67.864;24.990;2023-07-20T12:16:26;1.38;;;0.40;;
30062;SDS011;16889;67.864;24.990;2023-07-20T12:21:13;0.40;;;0.40;;
30062;SDS011;16889;67.864;24.990;2023-07-20T12:25:59;0.30;;;0.30;;
30062;SDS011;16889;67.864;24.990;2023-07-20T12:30:46;0.98;;;0.40;;
30062;SDS011;16889;67.864;24.990;2023-07-20T12:35:41;2.67;;;0.50;;
30062;SDS011;16889;67.864;24.990;2023-07-20T12:40:28;1.37;;;0.30;;
30062;SDS011;16889;67.864;24.990;2023-07-20T12:45:14;1.33;;;0.40;;
30062;SDS011;16889;67.864;24.990;2023-07-20T12:50:01;2.67;;;0.50;;
30062;SDS011;16889;67.864;24.990;2023-07-20T12:54:49;0.60;;;0.52;;
30062;SDS011;16889;67.864;24.990;2023-07-20T12:59:35;4.82;;;0.60;;
30062;SDS011;16889;67.864;24.990;2023-07-20T13:04:21;0.60;;;0.50;;
30062;SDS011;16889;67.864;24.990;2023-07-20T13:09:07;1.05;;;0.40;;
30062;SDS011;16889;67.864;24.990;2023-07-20T13:13:56;0.80;;;0.50;;
30062;SDS011;16889;67.864;24.990;2023-07-20T13:18:42;0.50;;;0.50;;
30062;SDS011;16889;67.864;24.990;2023-07-20T13:23:28;1.00;;;0.40;;
30062;SDS011;16889;67.864;24.990;2023-07-20T13:28:14;2.47;;;0.40;;
30062;SDS011;16889;67.864;24.990;2023-07-20T13:33:00;1.05;;;0.50;;
30062;SDS011;16889;67.864;24.990;2023-07-20T13:37:46;0.60;;;0.40;;
30062;SDS011;16889;67.864;24.990;2023-07-20T13:42:32;0.43;;;0.40;;
30062;SDS011;16889;67.864;24.990;2023-07-20T13:47:18;1.27;;;0.32;;
30062;SDS011;16889;67.864;24.990;2023-07-20T13:52:04;0.43;;;0.40;;
30062;SDS011;16889;67.864;24.990;2023-07-20T13:56:51;1.58;;;0.50;;
30062;SDS011;16889;67.864;24.990;2023-07-20T14:01:37;1.65;;;0.40;;
30062;SDS011;16889;67.864;24.990;2023-07-20T14:06:23;2.20;;;0.50;;
30062;SDS011;16889;67.864;24.990;2023-07-20T14:11:09;0.52;;;0.30;;
30062;SDS011;16889;67.864;24.990;2023-07-20T14:15:55;1.27;;;0.50;;
30062;SDS011;16889;67.864;24.990;2023-07-20T14:20:41;0.95;;;0.47;;
30062;SDS011;16889;67.864;24.990;2023-07-20T14:25:29;0.30;;;0.30;;
30062;SDS011;16889;67.864;24.990;2023-07-20T14:30:15;3.08;;;0.38;;
30062;SDS011;16889;67.864;24.990;2023-07-20T14:35:01;0.55;;;0.40;;
30062;SDS011;16889;67.864;24.990;2023-07-20T14:39:47;3.65;;;0.40;;
30062;SDS011;16889;67.864;24.990;2023-07-20T14:44:33;0.65;;;0.52;;
30062;SDS011;16889;67.864;24.990;2023-07-20T14:49:19;2.40;;;0.40;;
30062;SDS011;16889;67.864;24.990;2023-07-20T14:54:06;0.35;;;0.30;;
30062;SDS011;16889;67.864;24.990;2023-07-20T14:58:52;0.40;;;0.40;;
30062;SDS011;16889;67.864;24.990;2023-07-20T15:03:38;0.52;;;0.32;;
30062;SDS011;16889;67.864;24.990;2023-07-20T15:08:24;0.85;;;0.30;;
30062;SDS011;16889;67.864;24.990;2023-07-20T15:13:09;1.67;;;0.40;;
30062;SDS011;16889;67.864;24.990;2023-07-20T15:17:55;3.78;;;0.50;;
30062;SDS011;16889;67.864;24.990;2023-07-20T15:22:41;3.08;;;0.95;;
30062;SDS011;16889;67.864;24.990;2023-07-20T15:27:28;0.55;;;0.40;;
30062;SDS011;16889;67.864;24.990;2023-07-20T15:32:14;0.77;;;0.40;;
30062;SDS011;16889;67.864;24.990;2023-07-20T15:37:01;0.47;;;0.40;;
30062;SDS011;16889;67.864;24.990;2023-07-20T15:41:48;0.85;;;0.43;;
30062;SDS011;16889;67.864;24.990;2023-07-20T15:51:26;1.88;;;0.80;;
30062;SDS011;16889;67.864;24.990;2023-07-20T15:56:12;0.70;;;0.50;;
30062;SDS011;16889;67.864;24.990;2023-07-20T16:00:58;1.10;;;0.50;;
30062;SDS011;16889;67.864;24.990;2023-07-20T16:05:44;0.93;;;0.50;;
30062;SDS011;16889;67.864;24.990;2023-07-20T16:10:30;1.58;;;0.50;;
30062;SDS011;16889;67.864;24.990;2023-07-20T16:15:16;1.17;;;0.40;;
30062;SDS011;16889;67.864;24.990;2023-07-20T16:20:02;0.43;;;0.43;;
30062;SDS011;16889;67.864;24.990;2023-07-20T16:24:49;1.13;;;0.50;;
30062;SDS011;16889;67.864;24.990;2023-07-20T16:29:35;0.55;;;0.50;;
30062;SDS011;16889;67.864;24.990;2023-07-20T16:34:21;0.40;;;0.40;;
30062;SDS011;16889;67.864;24.990;2023-07-20T16:39:07;2.05;;;0.60;;
30062;SDS011;16889;67.864;24.990;2023-07-20T16:43:54;1.50;;;0.83;;
30062;SDS011;16889;67.864;24.990;2023-07-20T16:48:40;1.13;;;0.45;;
30062;SDS011;16889;67.864;24.990;2023-07-20T16:53:26;1.20;;;0.50;;
30062;SDS011;16889;67.864;24.990;2023-07-20T16:58:12;1.95;;;0.50;;
30062;SDS011;16889;67.864;24.990;2023-07-20T17:02:59;0.95;;;0.47;;
30062;SDS011;16889;67.864;24.990;2023-07-20T17:07:48;0.50;;;0.40;;
30062;SDS011;16889;67.864;24.990;2023-07-20T17:12:40;0.50;;;0.40;;
30062;SDS011;16889;67.864;24.990;2023-07-20T17:17:26;0.52;;;0.50;;
30062;SDS011;16889;67.864;24.990;2023-07-20T17:22:12;1.92;;;0.60;;
30062;SDS011;16889;67.864;24.990;2023-07-20T17:26:58;1.55;;;0.38;;
30062;SDS011;16889;67.864;24.990;2023-07-20T17:31:44;0.63;;;0.40;;
30062;SDS011;16889;67.864;24.990;2023-07-20T17:36:30;1.35;;;0.30;;
30062;SDS011;16889;67.864;24.990;2023-07-20T17:41:16;0.40;;;0.22;;
30062;SDS011;16889;67.864;24.990;2023-07-20T17:46:02;0.70;;;0.32;;
30062;SDS011;16889;67.864;24.990;2023-07-20T17:50:48;0.95;;;0.40;;
30062;SDS011;16889;67.864;24.990;2023-07-20T17:55:34;0.40;;;0.40;;
30062;SDS011;16889;67.864;24.990;2023-07-20T18:00:20;0.70;;;0.40;;
30062;SDS011;16889;67.864;24.990;2023-07-20T18:05:06;0.38;;;0.22;;
30062;SDS011;16889;67.864;24.990;2023-07-20T18:09:52;0.22;;;0.22;;
30062;SDS011;16889;67.864;24.990;2023-07-20T18:14:38;1.60;;;0.50;;
30062;SDS011;16889;67.864;24.990;2023-07-20T18:19:24;0.43;;;0.32;;
30062;SDS011;16889;67.864;24.990;2023-07-20T18:24:10;1.40;;;0.50;;
30062;SDS011;16889;67.864;24.990;2023-07-20T18:28:56;1.25;;;0.50;;
30062;SDS011;16889;67.864;24.990;2023-07-20T18:33:42;0.45;;;0.45;;
30062;SDS011;16889;67.864;24.990;2023-07-20T18:38:28;0.40;;;0.40;;
30062;SDS011;16889;67.864;24.990;2023-07-20T18:43:14;0.40;;;0.40;;
30062;SDS011;16889;67.864;24.990;2023-07-20T18:48:00;0.93;;;0.60;;
30062;SDS011;16889;67.864;24.990;2023-07-20T18:52:45;2.15;;;0.40;;
30062;SDS011;16889;67.864;24.990;2023-07-20T18:57:32;1.42;;;0.60;;
30062;SDS011;16889;67.864;24.990;2023-07-20T19:02:18;0.60;;;0.40;;
30062;SDS011;16889;67.864;24.990;2023-07-20T19:07:05;0.50;;;0.50;;
30062;SDS011;16889;67.864;24.990;2023-07-20T19:11:51;0.68;;;0.50;;
30062;SDS011;16889;67.864;24.990;2023-07-20T19:16:37;1.05;;;0.40;;
30062;SDS011;16889;67.864;24.990;2023-07-20T19:21:23;3.13;;;0.40;;
30062;SDS011;16889;67.864;24.990;2023-07-20T19:26:09;0.50;;;0.50;;
30062;SDS011;16889;67.864;24.990;2023-07-20T19:30:55;1.25;;;0.40;;
30062;SDS011;16889;67.864;24.990;2023-07-20T19:35:41;0.82;;;0.50;;
30062;SDS011;16889;67.864;24.990;2023-07-20T19:40:29;1.30;;;0.50;;
30062;SDS011;16889;67.864;24.990;2023-07-20T19:45:18;0.45;;;0.40;;
30062;SDS011;16889;67.864;24.990;2023-07-20T19:50:04;0.47;;;0.40;;
30062;SDS011;16889;67.864;24.990;2023-07-20T19:54:51;0.30;;;0.30;;
30062;SDS011;16889;67.864;24.990;2023-07-20T19:59:37;3.05;;;0.50;;
30062;SDS011;16889;67.864;24.990;2023-07-20T20:04:23;0.40;;;0.40;;
30062;SDS011;16889;67.864;24.990;2023-07-20T20:09:09;0.80;;;0.43;;
30062;SDS011;16889;67.864;24.990;2023-07-20T20:13:55;0.60;;;0.32;;
30062;SDS011;16889;67.864;24.990;2023-07-20T20:18:41;2.30;;;0.40;;
30062;SDS011;16889;67.864;24.990;2023-07-20T20:23:29;0.60;;;0.45;;
30062;SDS011;16889;67.864;24.990;2023-07-20T20:28:15;2.25;;;0.40;;
30062;SDS011;16889;67.864;24.990;2023-07-20T20:33:01;0.77;;;0.40;;
30062;SDS011;16889;67.864;24.990;2023-07-20T20:37:47;0.80;;;0.45;;
30062;SDS011;16889;67.864;24.990;2023-07-20T20:42:33;0.57;;;0.40;;
30062;SDS011;16889;67.864;24.990;2023-07-20T20:47:19;1.30;;;0.50;;
30062;SDS011;16889;67.864;24.990;2023-07-20T20:52:05;0.50;;;0.40;;
30062;SDS011;16889;67.864;24.990;2023-07-20T20:56:52;0.68;;;0.60;;
30062;SDS011;16889;67.864;24.990;2023-07-20T21:01:39;0.90;;;0.60;;
30062;SDS011;16889;67.864;24.990;2023-07-20T21:06:25;0.50;;;0.50;;
30062;SDS011;16889;67.864;24.990;2023-07-20T21:11:11;0.77;;;0.65;;
30062;SDS011;16889;67.864;24.990;2023-07-20T21:15:57;0.50;;;0.50;;
30062;SDS011;16889;67.864;24.990;2023-07-20T21:20:43;0.77;;;0.43;;
30062;SDS011;16889;67.864;24.990;2023-07-20T21:25:29;1.95;;;0.50;;
30062;SDS011;16889;67.864;24.990;2023-07-20T21:30:15;0.50;;;0.50;;
30062;SDS011;16889;67.864;24.990;2023-07-20T21:35:01;0.63;;;0.50;;
30062;SDS011;16889;67.864;24.990;2023-07-20T21:39:47;2.75;;;0.68;;
30062;SDS011;16889;67.864;24.990;2023-07-20T21:44:33;0.60;;;0.60;;
30062;SDS011;16889;67.864;24.990;2023-07-20T21:49:19;2.40;;;0.63;;
30062;SDS011;16889;67.864;24.990;2023-07-20T21:54:05;0.70;;;0.70;;
30062;SDS011;16889;67.864;24.990;2023-07-20T21:58:51;1.25;;;0.77;;
30062;SDS011;16889;67.864;24.990;2023-07-20T22:03:37;0.90;;;0.68;;
30062;SDS011;16889;67.864;24.990;2023-07-20T22:08:23;0.93;;;0.77;;
30062;SDS011;16889;67.864;24.990;2023-07-20T22:13:10;0.85;;;0.73;;
30062;SDS011;16889;67.864;24.990;2023-07-20T22:17:56;0.60;;;0.60;;
30062;SDS011;16889;67.864;24.990;2023-07-20T22:22:42;1.38;;;0.75;;
30062;SDS011;16889;67.864;24.990;2023-07-20T22:27:28;0.98;;;0.80;;
30062;SDS011;16889;67.864;24.990;2023-07-20T22:32:14;1.27;;;0.80;;
30062;SDS011;16889;67.864;24.990;2023-07-20T22:37:03;3.88;;;0.80;;
30062;SDS011;16889;67.864;24.990;2023-07-20T22:41:50;0.70;;;0.57;;
30062;SDS011;16889;67.864;24.990;2023-07-20T22:46:36;1.10;;;0.70;;
30062;SDS011;16889;67.864;24.990;2023-07-20T22:51:22;1.05;;;0.68;;
30062;SDS011;16889;67.864;24.990;2023-07-20T22:56:08;0.70;;;0.60;;
30062;SDS011;16889;67.864;24.990;2023-07-20T23:00:54;0.90;;;0.75;;
30062;SDS011;16889;67.864;24.990;2023-07-20T23:05:40;1.77;;;0.70;;
30062;SDS011;16889;67.864;24.990;2023-07-20T23:10:26;1.52;;;0.52;;
30062;SDS011;16889;67.864;24.990;2023-07-20T23:15:12;0.82;;;0.60;;
30062;SDS011;16889;67.864;24.990;2023-07-20T23:20:02;0.60;;;0.60;;
30062;SDS011;16889;67.864;24.990;2023-07-20T23:24:48;1.23;;;0.65;;
30062;SDS011;16889;67.864;24.990;2023-07-20T23:29:35;0.70;;;0.70;;
30062;SDS011;16889;67.864;24.990;2023-07-20T23:34:22;0.60;;;0.50;;
30062;SDS011;16889;67.864;24.990;2023-07-20T23:39:07;0.43;;;0.43;;
30062;SDS011;16889;67.864;24.990;2023-07-20T23:43:53;1.63;;;0.50;;
30062;SDS011;16889;67.864;24.990;2023-07-20T23:48:42;1.70;;;0.70;;
30062;SDS011;16889;67.864;24.990;2023-07-20T23:53:28;0.60;;;0.60;;
30062;SDS011;16889;67.864;24.990;2023-07-20T23:58:16;0.70;;;0.50;;
